McNeill, MS (39457)

10:13 AM CDT on September 03, 2015 (GMT -0500)
Rock Ranch Road | | Change Station
CLOSE
Current Station
Personal Weather Station
Location: Carriere, MS
Elevation: 131 ft
Nearby Weather Stations

Elev 131 ft 30.64 °N, 89.70 °W | Updated 15 seconds ago

Partly Cloudy
Partly Cloudy
88.4 °F
Feels Like 98 °F
N
1.2
Wind Variable Wind from SE
Gusts 1.6 mph

Today
High -- | Low -- °F
--% Chance of Precip.
Yesterday
High -- | Low -- °F
Precip. -- in
6:36 AM 7:19 PM
Waning Gibbous, 69% visible
Pressure 30.02 in
Visibility 7.0 miles
Clouds Scattered Clouds 3000 ft
Heat Index 98 °F
Dew Point 75 °F
Humidity 64%
Rainfall 0.00 in
Snow Depth Not available.
UV 5 out of 12
Pollen 6.20 out of 12
Air Quality Not available.
Flu Activity Not available.
METAR KHSA 031455Z 00000KT 7SM SCT030 29/22 A3002
Pressure 30.02 in
Visibility 7.0 miles
Clouds Scattered Clouds 3000 ft
Heat Index 98 °F
Dew Point 75 °F
Humidity 64%
Rainfall 0.00 in
Snow Depth Not available.
UV 5 out of 12
Pollen 6.20 out of 12
Air Quality Not available.
Flu Activity Not available.
METAR KHSA 031455Z 00000KT 7SM SCT030 29/22 A3002

10-Day Weather Forecast

×

Almanac

Astronomy

Sep. 03, 2015 Rise Set
Actual Time
Civil Twilight
Nautical Twilight
Astronomical Twilight
Moon
Length of Visible Light
Length of Day
Tomorrow will be .
, % of the Moon is Illuminated

Today's Extremes

State Highs State Lows

Community

WunderPhotos

Upload Photos

1,851,972 photos uploaded!

WunderBlogs® & News

Nearby

Air Quality

  Air Quality AQ Index Pollutant
Not available.

Snow Depth

Station Depth Elevation

Earthquake Activity

City Distance Mag. Time & Date
Minimum magnitude displayed is 2.5.

Coastal Water Temperatures

Place Temperature

Stations

Nearby Weather Stations

Station Location Temp. Windchill Dew Point Humidity Wind Precip. Elev Updated Type